Forest fire From: 18-06-2018 11:00 Until: 19-06-2018 10:14 warning for: Forest fire Level: Yellow info button
suomi:
Metsäpalovaroitus on voimassa.

svenska:
Varning för skogsbrand gäller.

english:
A forest fire warning is in force. 


Thunder radar more information blitzortung!


Löydät sääaseman tiedot myös:

European Weather Network

Finland Weather Exchange

Weather Underground

AWEKAS



Weather Underground säähistoriasivu

Päivittäin yhteenveto Tou 31, 2017 Yksiköt:  Englantilaiset    Metriset   Molemmat
« Edellinen Päivä
Seuraava Päivä »
Päivittäin Viikoittain Kuukausittain Vuosittain Mukautettu
  Korkea: Matala: Keskiarvo:
Lämpötila: TemperatureC °F 5.5 °F 8.3 °F
Kastepiste: DewpointC °F -2.8 °F 3.3 °F
Kosteus: Humidity % 39 % 73 %
Tuulen nopeus: WindSpeedKMH mph 0.0 mph 2.5 mph
Tuulenpuuska: WindSpeedGustKMH mph - -
Tuuli:- - WNW
Ilmanpaine: PressurehPa in 995.1 in -
Sade: 0.3 in    
Historical Graphs
 
 
Taulukkotiedot Tou 31, 2017
Aika Lämpötila Kastepiste Ilmanpaine Tuuli Tuulen nopeus Tuulenpuuska Kosteus Sademäärä (tunneittain)
TemperatureC °F DewpointC °F PressurehPa in Calm     Humidity % HourlyPrecipMM in
00:00 7.6 °F 6.8 °F 1000.9 in Calm     95 % 0.5 in
00:15 7.6 °F 6.9 °F 1000.6 in Calm     95 % 0.3 in
00:30 7.7 °F 7.0 °F 1000.2 in Calm     95 % 0.3 in
00:45 7.8 °F 7.2 °F 999.9 in Calm     96 % 0.3 in
01:00 7.8 °F 7.2 °F 999.9 in Calm     96 % 0.0 in
01:15 7.9 °F 7.3 °F 999.5 in Calm     96 % 0.0 in
01:30 7.9 °F 7.3 °F 999.5 in Calm   3.2 mph 96 % 0.0 in
01:45 7.9 °F 7.3 °F 999.2 in Calm   3.2 mph 96 % 0.0 in
02:00 7.8 °F 7.2 °F 999.2 in Calm   1.6 mph 96 % 0.0 in
02:45 7.6 °F 7.0 °F 998.5 in SW 1.6 mph 4.8 mph 96 % 0.3 in
03:00 7.6 °F 7.0 °F 998.2 in Calm   3.2 mph 96 % 0.3 in
03:15 7.5 °F 6.9 °F 997.9 in Calm     96 % 0.0 in
03:30 7.4 °F 6.8 °F 997.9 in Calm     96 % 0.0 in
03:45 7.4 °F 6.8 °F 997.5 in Calm     96 % 0.0 in
04:15 7.4 °F 6.8 °F 997.2 in Calm     96 % 0.0 in
04:30 7.3 °F 6.7 °F 996.8 in Calm     96 % 0.0 in
04:45 7.3 °F 6.7 °F 996.8 in Calm     96 % 0.0 in
05:00 7.3 °F 6.7 °F 996.5 in Calm     96 % 0.0 in
05:15 7.3 °F 6.7 °F 996.5 in Calm     96 % 0.0 in
05:30 7.4 °F 6.8 °F 996.2 in Calm     96 % 0.0 in
05:45 7.4 °F 6.8 °F 995.8 in Calm     96 % 0.0 in
06:00 7.4 °F 6.8 °F 995.8 in Calm     96 % 0.0 in
06:15 7.4 °F 6.8 °F 995.5 in Calm     96 % 0.0 in
06:30 7.5 °F 6.9 °F 995.5 in Calm   1.6 mph 96 % 0.0 in
06:45 7.6 °F 7.0 °F 995.1 in Calm   3.2 mph 96 % 0.0 in
07:00 7.7 °F 7.1 °F 995.1 in Calm     96 % 0.0 in
07:15 7.8 °F 7.2 °F 995.5 in Calm   3.2 mph 96 % 0.0 in
07:30 7.7 °F 7.1 °F 995.5 in Calm   4.8 mph 96 % 0.0 in
07:45 7.8 °F 7.2 °F 995.1 in Calm     96 % 0.0 in
08:00 7.9 °F 7.3 °F 995.1 in Calm   1.6 mph 96 % 0.0 in
08:15 8.1 °F 7.5 °F 995.1 in Calm     96 % 0.0 in
08:30 7.9 °F 7.1 °F 995.1 in WNW 1.6 mph 8.0 mph 95 % 0.0 in
08:45 7.8 °F 7.1 °F 995.1 in Calm   4.8 mph 95 % 0.0 in
09:00 7.9 °F 7.1 °F 995.1 in Calm   6.4 mph 95 % 0.0 in
09:15 7.9 °F 7.0 °F 995.1 in Calm   6.4 mph 94 % 0.0 in
09:30 7.9 °F 7.1 °F 995.1 in Calm   4.8 mph 95 % 0.0 in
09:45 7.9 °F 7.0 °F 995.1 in Calm   6.4 mph 94 % 0.0 in
10:00 7.9 °F 6.8 °F 995.1 in NW 1.6 mph 9.7 mph 93 % 0.0 in
10:15 7.6 °F 6.7 °F 995.5 in NW 4.8 mph 14.5 mph 94 % 0.0 in
10:30 7.6 °F 6.9 °F 995.5 in NW 1.6 mph 8.0 mph 95 % 0.0 in
10:45 7.1 °F 6.2 °F 995.5 in NW 3.2 mph 8.0 mph 94 % 0.0 in
11:00 6.6 °F 5.7 °F 995.8 in North 3.2 mph 9.7 mph 94 % 0.0 in
11:15 5.9 °F 4.7 °F 996.2 in NNW 4.8 mph 14.5 mph 92 % 0.0 in
11:30 5.9 °F 4.6 °F 996.2 in NNW 3.2 mph 9.7 mph 91 % 0.0 in
11:45 6.2 °F 4.5 °F 996.2 in NW 1.6 mph 12.9 mph 89 % 0.0 in
12:00 6.4 °F 4.2 °F 996.5 in NNW 3.2 mph 11.3 mph 86 % 0.0 in
12:15 7.1 °F 4.0 °F 996.5 in NNW 4.8 mph 16.1 mph 81 % 0.0 in
12:30 8.6 °F 5.1 °F 996.5 in North 3.2 mph 9.7 mph 79 % 0.0 in
12:45 8.8 °F 3.6 °F 996.5 in NNW 6.4 mph 16.1 mph 70 % 0.0 in
13:00 9.1 °F 3.7 °F 996.5 in NNW 4.8 mph 12.9 mph 69 % 0.0 in
13:15 8.8 °F 2.4 °F 996.8 in NNW 6.4 mph 17.7 mph 64 % 0.0 in
13:30 9.9 °F 2.8 °F 996.8 in NNW 6.4 mph 11.3 mph 61 % 0.0 in
13:45 9.6 °F 1.7 °F 997.2 in NW 9.7 mph 24.1 mph 58 % 0.0 in
14:00 9.8 °F 1.7 °F 997.2 in NW 9.7 mph 22.5 mph 57 % 0.0 in
14:15 10.5 °F 1.3 °F 997.2 in NNW 6.4 mph 14.5 mph 53 % 0.0 in
14:30 10.4 °F 0.7 °F 997.2 in North 4.8 mph 11.3 mph 51 % 0.0 in
14:45 10.5 °F -0.1 °F 997.5 in NNW 6.4 mph 19.3 mph 48 % 0.0 in
15:00 11.1 °F -0.1 °F 997.5 in North 4.8 mph 11.3 mph 46 % 0.0 in
15:15 11.0 °F -0.2 °F 997.5 in NNW 6.4 mph 12.9 mph 46 % 0.0 in
15:30 11.3 °F -0.2 °F 997.9 in North 4.8 mph 11.3 mph 45 % 0.0 in
15:45 10.5 °F -1.6 °F 997.9 in NNW 9.7 mph 20.9 mph 43 % 0.0 in
16:00 11.1 °F -1.1 °F 997.9 in NNW 6.4 mph 16.1 mph 43 % 0.0 in
16:15 10.9 °F -1.5 °F 997.9 in North 6.4 mph 12.9 mph 42 % 0.0 in
16:30 10.6 °F -1.5 °F 997.9 in North 6.4 mph 12.9 mph 43 % 0.0 in
16:45 9.6 °F -1.5 °F 998.2 in NNW 3.2 mph 12.9 mph 46 % 0.0 in
17:00 9.5 °F -1.3 °F 998.2 in NW 6.4 mph 19.3 mph 47 % 0.0 in
17:30 11.2 °F -1.3 °F 998.2 in North 4.8 mph 11.3 mph 42 % 0.0 in
17:45 11.4 °F -2.0 °F 998.2 in NW 6.4 mph 16.1 mph 39 % 0.0 in
18:00 10.3 °F -2.1 °F 998.2 in NNW 8.0 mph 20.9 mph 42 % 0.0 in
18:15 9.6 °F -1.8 °F 998.5 in NW 8.0 mph 22.5 mph 45 % 0.0 in
18:30 10.1 °F -1.3 °F 998.5 in NW 3.2 mph 14.5 mph 45 % 0.0 in
18:45 9.6 °F -2.4 °F 998.5 in North 1.6 mph 6.4 mph 43 % 0.0 in
19:00 9.4 °F -1.3 °F 998.5 in NW 1.6 mph 11.3 mph 47 % 0.0 in
19:15 9.6 °F -1.2 °F 998.5 in NW 1.6 mph 4.8 mph 47 % 0.0 in
19:30 9.8 °F -1.6 °F 998.5 in NW 1.6 mph 8.0 mph 45 % 0.0 in
19:45 10.2 °F -2.1 °F 998.5 in NW 3.2 mph 12.9 mph 42 % 0.0 in
20:00 10.3 °F -2.8 °F 998.5 in NW 8.0 mph 22.5 mph 40 % 0.0 in
20:15 9.9 °F -2.8 °F 998.9 in WNW 8.0 mph 20.9 mph 41 % 0.0 in
20:30 9.1 °F -2.3 °F 998.9 in NW 6.4 mph 12.9 mph 45 % 0.0 in
20:45 8.7 °F -1.7 °F 998.9 in NW 3.2 mph 12.9 mph 48 % 0.0 in
21:00 8.7 °F -0.9 °F 998.9 in West 3.2 mph 12.9 mph 51 % 0.0 in
21:15 8.7 °F -0.9 °F 998.9 in West 1.6 mph 11.3 mph 51 % 0.0 in
21:30 8.6 °F -0.7 °F 998.9 in SW 1.6 mph 8.0 mph 52 % 0.0 in
21:45 8.4 °F -0.3 °F 998.9 in SW 1.6 mph 12.9 mph 54 % 0.0 in
22:00 8.0 °F -0.3 °F 998.5 in SW 1.6 mph 6.4 mph 56 % 0.0 in
22:15 7.4 °F 0.2 °F 998.5 in Calm   6.4 mph 60 % 0.0 in
22:30 7.0 °F 0.4 °F 998.9 in Calm   3.2 mph 63 % 0.0 in
22:45 6.6 °F 0.7 °F 998.5 in Calm   4.8 mph 66 % 0.0 in
23:00 6.4 °F 1.1 °F 998.9 in Calm   3.2 mph 69 % 0.0 in
23:15 6.0 °F 0.9 °F 998.9 in Calm   6.4 mph 70 % 0.0 in
23:30 5.8 °F 0.9 °F 998.9 in Calm   11.3 mph 71 % 0.0 in
23:45 5.5 °F 0.8 °F 998.9 in Calm   4.8 mph 72 % 0.0 in
Esan sääasema
Terveisin Weather Underground - 2.75 mb

Alkuperäinen skripti  Jim McMurry - jmcmurry@mwt.net Sovitettu myös templatelle  Wim van der Kuil - Leuven-Template.eu

Laitteet joita käytämme:

Sääasema
Davis VP2

Sääasemaohjelma
Cumulus

Sääaseman tietokone
Asus EeePC

Palveluntarjoaja
Suncomet

Davis VP2

Cumulus

Asus EeePC

Suncomet